createdAt,value
2022-10-02T00:00:54.229Z,0
2022-10-02T00:01:55.306Z,0
2022-10-02T00:02:56.217Z,0
2022-10-02T00:03:57.668Z,0
2022-10-02T00:04:58.015Z,0
2022-10-02T00:05:57.914Z,0
2022-10-02T00:06:59.410Z,0
2022-10-02T00:07:59.019Z,0
2022-10-02T00:09:00.254Z,0
2022-10-02T00:10:01.215Z,0
2022-10-02T00:11:01.484Z,0
2022-10-02T00:12:01.402Z,0
2022-10-02T00:13:02.121Z,0
2022-10-02T00:14:03.028Z,0
2022-10-02T00:15:03.365Z,0
2022-10-02T00:16:04.121Z,0
2022-10-02T00:17:05.186Z,0
2022-10-02T00:18:05.403Z,0
2022-10-02T00:19:06.315Z,0
2022-10-02T00:20:06.230Z,0
2022-10-02T00:21:07.541Z,0
2022-10-02T00:22:07.454Z,0
2022-10-02T00:23:08.648Z,0
2022-10-02T00:24:09.160Z,0
2022-10-02T00:25:09.404Z,0
2022-10-02T00:26:09.894Z,0
2022-10-02T00:27:09.818Z,0
2022-10-02T00:28:11.393Z,0
2022-10-02T00:29:10.742Z,0
2022-10-02T00:30:12.237Z,0
2022-10-02T00:31:12.649Z,0
2022-10-02T00:32:13.848Z,0
2022-10-02T00:33:13.755Z,0
2022-10-02T00:34:20.478Z,0
2022-10-02T00:35:15.409Z,0
2022-10-02T00:36:15.005Z,0
2022-10-02T00:37:15.943Z,0
2022-10-02T00:38:16.555Z,0
2022-10-02T00:39:17.867Z,0
2022-10-02T00:40:17.624Z,0
2022-10-02T00:41:17.927Z,0
2022-10-02T00:42:18.538Z,0
2022-10-02T00:43:19.155Z,0
2022-10-02T00:44:20.342Z,0
2022-10-02T00:45:20.971Z,0
2022-10-02T00:46:21.998Z,0
2022-10-02T00:47:23.489Z,0
2022-10-02T00:48:23.705Z,0
2022-10-02T00:49:23.044Z,0
2022-10-02T00:50:23.992Z,0
2022-10-02T00:51:25.278Z,0
2022-10-02T00:52:24.886Z,0
2022-10-02T00:53:25.791Z,0
2022-10-02T00:54:26.734Z,0
2022-10-02T00:55:26.730Z,0
2022-10-02T00:56:27.945Z,0
2022-10-02T00:57:28.571Z,0
2022-10-02T00:58:29.487Z,0
2022-10-02T00:59:29.276Z,0
2022-10-02T01:00:30.193Z,0
2022-10-02T01:01:30.665Z,0
2022-10-02T01:02:30.794Z,0
2022-10-02T01:03:30.991Z,0
2022-10-02T01:04:31.619Z,0
2022-10-02T01:05:32.212Z,0
2022-10-02T01:06:33.329Z,0
2022-10-02T01:07:34.675Z,0
2022-10-02T01:08:34.317Z,0
2022-10-02T01:09:35.533Z,0
2022-10-02T01:10:35.467Z,0
2022-10-02T01:11:36.168Z,0
2022-10-02T01:12:35.799Z,0
2022-10-02T01:13:37.095Z,0
2022-10-02T01:14:37.007Z,0
2022-10-02T01:15:37.622Z,0
2022-10-02T01:16:39.739Z,0
2022-10-02T01:17:39.449Z,0
2022-10-02T01:18:39.365Z,0
2022-10-02T01:19:40.003Z,0
2022-10-02T01:20:40.896Z,0
2022-10-02T01:21:41.029Z,0
2022-10-02T01:22:41.645Z,0
2022-10-02T01:23:42.834Z,0
2022-10-02T01:24:43.491Z,0
2022-10-02T01:25:44.170Z,0
2022-10-02T01:26:46.195Z,0
2022-10-02T01:27:50.778Z,0
2022-10-02T01:28:47.390Z,0
2022-10-02T01:29:47.279Z,0
2022-10-02T01:30:48.493Z,0
2022-10-02T01:31:48.663Z,0
2022-10-02T01:32:49.016Z,0
2022-10-02T01:33:50.228Z,0
2022-10-02T01:34:49.551Z,0
2022-10-02T01:35:50.746Z,0
2022-10-02T01:36:50.825Z,0
2022-10-02T01:37:51.739Z,0
2022-10-02T01:38:52.652Z,0
2022-10-02T01:39:53.928Z,0
2022-10-02T01:40:54.151Z,0
2022-10-02T01:41:53.971Z,0
2022-10-02T01:42:54.286Z,0
2022-10-02T01:43:55.776Z,0
2022-10-02T01:44:55.965Z,0
2022-10-02T01:45:56.624Z,0
2022-10-02T01:46:57.535Z,0
2022-10-02T01:47:58.445Z,0
2022-10-02T01:48:59.065Z,0
2022-10-02T01:49:59.960Z,0
2022-10-02T01:51:01.173Z,0
2022-10-02T01:52:01.613Z,0
2022-10-02T01:53:02.227Z,0
2022-10-02T01:54:03.125Z,0
2022-10-02T01:55:04.073Z,0
2022-10-02T01:56:05.295Z,0
2022-10-02T01:57:05.846Z,0
2022-10-02T01:58:05.738Z,0
2022-10-02T01:59:06.678Z,0
2022-10-02T02:00:06.283Z,0
2022-10-02T02:01:07.148Z,0
2022-10-02T02:02:08.398Z,0
2022-10-02T02:03:08.947Z,0
2022-10-02T02:04:08.324Z,0
2022-10-02T02:05:09.220Z,0
2022-10-02T02:06:10.155Z,0
2022-10-02T02:07:10.365Z,0
2022-10-02T02:08:10.266Z,0
2022-10-02T02:09:16.603Z,0
2022-10-02T02:10:12.289Z,0
2022-10-02T02:11:13.605Z,0
2022-10-02T02:12:13.595Z,0
2022-10-02T02:13:13.207Z,0
2022-10-02T02:14:14.701Z,0
2022-10-02T02:15:14.106Z,0
2022-10-02T02:16:14.724Z,0
2022-10-02T02:17:15.484Z,0
2022-10-02T02:18:16.695Z,0
2022-10-02T02:19:18.157Z,0
2022-10-02T02:20:17.496Z,0
2022-10-02T02:21:21.930Z,0
2022-10-02T02:22:19.076Z,0
2022-10-02T02:23:20.014Z,0
2022-10-02T02:24:20.499Z,0
2022-10-02T02:25:20.435Z,0
2022-10-02T02:26:20.800Z,0
2022-10-02T02:27:22.282Z,0
2022-10-02T02:28:22.538Z,0
2022-10-02T02:29:23.057Z,0
2022-10-02T02:30:22.949Z,0
2022-10-02T02:31:23.758Z,0
2022-10-02T02:32:23.968Z,0
2022-10-02T02:33:24.179Z,0
2022-10-02T02:34:24.808Z,0
2022-10-02T02:35:26.020Z,0
2022-10-02T02:36:25.930Z,0
2022-10-02T02:37:25.849Z,0
2022-10-02T02:38:27.338Z,0
2022-10-02T02:39:27.829Z,0
2022-10-02T02:40:27.780Z,0
2022-10-02T02:41:28.781Z,0
2022-10-02T02:42:37.582Z,0
2022-10-02T02:43:29.774Z,0
2022-10-02T02:44:29.689Z,0
2022-10-02T02:45:30.396Z,0
2022-10-02T02:46:31.099Z,0
2022-10-02T02:47:31.418Z,0
2022-10-02T02:48:32.909Z,0
2022-10-02T02:49:32.820Z,0
2022-10-02T02:50:33.433Z,0
2022-10-02T02:51:34.925Z,0
2022-10-02T02:52:34.919Z,0
2022-10-02T02:53:35.117Z,0
2022-10-02T02:54:35.047Z,0
2022-10-02T02:55:36.629Z,0
2022-10-02T02:56:36.862Z,0
2022-10-02T02:57:37.209Z,0
2022-10-02T02:58:37.096Z,0
2022-10-02T02:59:37.438Z,0
2022-10-02T03:00:38.391Z,0
2022-10-02T03:01:39.114Z,0
2022-10-02T03:02:40.324Z,0
2022-10-02T03:03:40.254Z,0
2022-10-02T03:04:40.593Z,0
2022-10-02T03:05:41.524Z,0
2022-10-02T03:06:42.912Z,0
2022-10-02T03:07:43.097Z,0
2022-10-02T03:08:43.308Z,0
2022-10-02T03:09:43.945Z,0
2022-10-02T03:10:45.159Z,0
2022-10-02T03:11:45.685Z,0
2022-10-02T03:12:45.681Z,0
2022-10-02T03:13:46.300Z,0
2022-10-02T03:14:47.319Z,0
2022-10-02T03:15:48.017Z,0
2022-10-02T03:16:50.131Z,0
2022-10-02T03:17:50.044Z,0
2022-10-02T03:18:49.659Z,0
2022-10-02T03:19:50.273Z,0
2022-10-02T03:20:51.485Z,0
2022-10-02T03:21:51.680Z,0
2022-10-02T03:22:51.993Z,0
2022-10-02T03:23:52.186Z,0
2022-10-02T03:24:52.549Z,0
2022-10-02T03:25:53.779Z,0
2022-10-02T03:26:54.256Z,0
2022-10-02T03:27:54.895Z,0
2022-10-02T03:29:12.231Z,0
2022-10-02T03:29:55.204Z,0
2022-10-02T03:30:56.693Z,0
2022-10-02T03:31:56.375Z,0
2022-10-02T03:32:56.792Z,0
2022-10-02T03:33:56.836Z,0
2022-10-02T03:34:59.052Z,0
2022-10-02T03:35:58.946Z,0
2022-10-02T03:36:59.564Z,0
2022-10-02T03:38:00.207Z,0
2022-10-02T03:39:36.545Z,0
2022-10-02T03:40:01.164Z,0
2022-10-02T03:41:02.166Z,0
2022-10-02T03:42:02.407Z,0
2022-10-02T03:43:03.011Z,0
2022-10-02T03:44:02.924Z,0
2022-10-02T03:45:03.261Z,0
2022-10-02T03:46:08.141Z,0
2022-10-02T03:47:05.580Z,0
2022-10-02T03:48:05.513Z,0
2022-10-02T03:49:06.162Z,0
2022-10-02T03:50:06.758Z,0
2022-10-02T03:51:07.074Z,0
2022-10-02T03:52:08.111Z,0
2022-10-02T03:53:09.527Z,0
2022-10-02T03:54:10.721Z,0
2022-10-02T03:55:11.943Z,0
2022-10-02T03:56:12.502Z,0
2022-10-02T03:57:12.747Z,0
2022-10-02T03:58:13.238Z,0
2022-10-02T03:59:13.728Z,0
2022-10-02T04:00:13.080Z,0
2022-10-02T04:01:14.050Z,0
2022-10-02T04:02:14.784Z,0
2022-10-02T04:03:14.880Z,0
2022-10-02T04:04:15.954Z,0
2022-10-02T04:05:17.144Z,0
2022-10-02T04:06:17.057Z,0
2022-10-02T04:07:17.990Z,0
2022-10-02T04:08:17.887Z,0
2022-10-02T04:09:18.777Z,0
2022-10-02T04:10:19.702Z,0
2022-10-02T04:11:20.657Z,0
2022-10-02T04:12:21.624Z,0
2022-10-02T04:13:21.894Z,0
2022-10-02T04:14:22.107Z,0
2022-10-02T04:15:22.099Z,0
2022-10-02T04:16:23.645Z,0
2022-10-02T04:17:23.323Z,0
2022-10-02T04:18:24.214Z,0
2022-10-02T04:19:25.131Z,0
2022-10-02T04:20:25.319Z,0
2022-10-02T04:21:25.206Z,0
2022-10-02T04:22:25.541Z,0
2022-10-02T04:23:26.866Z,0
2022-10-02T04:24:26.182Z,0
2022-10-02T04:25:27.920Z,0
2022-10-02T04:26:28.138Z,0
2022-10-02T04:27:28.381Z,0
2022-10-02T04:28:28.842Z,0
2022-10-02T04:29:29.052Z,0
2022-10-02T04:30:28.948Z,0
2022-10-02T04:31:30.264Z,0
2022-10-02T04:32:31.514Z,0
2022-10-02T04:33:34.205Z,0
2022-10-02T04:34:32.246Z,0
2022-10-02T04:35:32.891Z,0
2022-10-02T04:36:33.748Z,0
2022-10-02T04:37:33.522Z,0
2022-10-02T04:38:34.137Z,0
2022-10-02T04:39:34.785Z,0
2022-10-02T04:40:35.977Z,0
2022-10-02T04:41:36.934Z,0
2022-10-02T04:42:37.875Z,0
2022-10-02T04:43:38.321Z,0
2022-10-02T04:44:38.214Z,0
2022-10-02T04:45:39.318Z,0
2022-10-02T04:46:39.970Z,0
2022-10-02T04:47:39.603Z,0
2022-10-02T04:48:40.225Z,0
2022-10-02T04:49:41.141Z,0
2022-10-02T04:50:41.334Z,0
2022-10-02T04:51:41.518Z,0
2022-10-02T04:52:41.404Z,0
2022-10-02T04:53:42.130Z,0
2022-10-02T04:54:42.050Z,0
2022-10-02T04:55:42.696Z,0
2022-10-02T04:56:44.289Z,0
2022-10-02T04:57:44.249Z,0
2022-10-02T04:58:44.454Z,0
2022-10-02T04:59:45.086Z,0
2022-10-02T05:00:45.971Z,0
2022-10-02T05:01:46.505Z,0
2022-10-02T05:02:46.491Z,0
2022-10-02T05:03:47.227Z,0
2022-10-02T05:04:48.140Z,0
2022-10-02T05:05:49.356Z,0
2022-10-02T05:06:51.025Z,0
2022-10-02T05:07:50.363Z,0
2022-10-02T05:08:50.979Z,0
2022-10-02T05:09:52.192Z,0
2022-10-02T05:10:52.405Z,0
2022-10-02T05:11:52.642Z,0
2022-10-02T05:12:52.588Z,0
2022-10-02T05:13:53.888Z,0
2022-10-02T05:14:53.524Z,0
2022-10-02T05:15:55.027Z,0
2022-10-02T05:16:55.760Z,0
2022-10-02T05:17:55.384Z,0
2022-10-02T05:18:56.294Z,0
2022-10-02T05:19:56.928Z,0
2022-10-02T05:20:57.244Z,0
2022-10-02T05:21:58.448Z,0
2022-10-02T05:22:59.373Z,0
2022-10-02T05:24:00.682Z,0
2022-10-02T05:25:00.317Z,0
2022-10-02T05:26:01.249Z,0
2022-10-02T05:27:02.234Z,0
2022-10-02T05:28:03.207Z,0
2022-10-02T05:29:03.156Z,0
2022-10-02T05:30:03.774Z,0
2022-10-02T05:31:04.276Z,0
2022-10-02T05:32:05.664Z,0
2022-10-02T05:33:05.986Z,0
2022-10-02T05:34:06.703Z,0
2022-10-02T05:35:06.914Z,0
2022-10-02T05:36:06.827Z,0
2022-10-02T05:37:07.417Z,0
2022-10-02T05:38:07.765Z,0
2022-10-02T05:39:08.099Z,0
2022-10-02T05:40:09.018Z,0
2022-10-02T05:41:09.627Z,0
2022-10-02T05:42:10.843Z,0
2022-10-02T05:43:11.084Z,0
2022-10-02T05:44:11.092Z,0
2022-10-02T05:45:11.989Z,0
2022-10-02T05:46:13.517Z,0
2022-10-02T05:47:13.047Z,0
2022-10-02T05:48:14.237Z,0
2022-10-02T05:49:14.471Z,0
2022-10-02T05:50:14.657Z,0
2022-10-02T05:51:15.871Z,0
2022-10-02T05:52:16.088Z,0
2022-10-02T05:53:16.308Z,0
2022-10-02T05:54:16.998Z,0
2022-10-02T05:55:17.912Z,0
2022-10-02T05:56:18.126Z,0
2022-10-02T05:57:19.056Z,0
2022-10-02T05:58:19.633Z,0
2022-10-02T05:59:20.234Z,0
2022-10-02T06:00:20.871Z,0
2022-10-02T06:01:22.622Z,0
2022-10-02T06:02:22.883Z,0
2022-10-02T06:03:22.507Z,0
2022-10-02T06:04:23.519Z,0
2022-10-02T06:05:25.007Z,0
2022-10-02T06:06:24.637Z,0
2022-10-02T06:07:25.277Z,0
2022-10-02T06:08:26.192Z,0
2022-10-02T06:09:31.560Z,0
2022-10-02T06:10:27.245Z,0
2022-10-02T06:11:27.860Z,0
2022-10-02T06:12:28.513Z,0
2022-10-02T06:13:29.757Z,0
2022-10-02T06:14:30.048Z,0
2022-10-02T06:15:29.960Z,0
2022-10-02T06:16:31.662Z,0
2022-10-02T06:17:31.878Z,0
2022-10-02T06:18:31.472Z,0
2022-10-02T06:19:31.576Z,0
2022-10-02T06:20:32.479Z,0
2022-10-02T06:21:32.397Z,0
2022-10-02T06:22:32.738Z,0
2022-10-02T06:23:33.356Z,0
2022-10-02T06:24:34.657Z,0
2022-10-02T06:25:35.269Z,0
2022-10-02T06:26:36.566Z,0
2022-10-02T06:27:36.890Z,0
2022-10-02T06:28:37.731Z,0
2022-10-02T06:29:43.196Z,0
2022-10-02T06:30:38.394Z,0
2022-10-02T06:31:39.072Z,0
2022-10-02T06:32:38.719Z,0
2022-10-02T06:33:39.356Z,0
2022-10-02T06:34:41.824Z,0
2022-10-02T06:35:40.751Z,0
2022-10-02T06:36:41.378Z,0
2022-10-02T06:37:41.712Z,5.63
2022-10-02T06:38:42.933Z,0
2022-10-02T06:39:42.266Z,0
2022-10-02T06:40:42.885Z,0
2022-10-02T06:41:44.094Z,0
2022-10-02T06:42:44.616Z,5.63
2022-10-02T06:43:44.583Z,5.63
2022-10-02T06:44:45.579Z,5.63
2022-10-02T06:45:46.581Z,5.63
2022-10-02T06:46:50.687Z,5.63
2022-10-02T06:47:47.139Z,0
2022-10-02T06:48:47.743Z,0
2022-10-02T06:49:48.933Z,5.63
2022-10-02T06:50:49.843Z,5.63
2022-10-02T06:51:50.476Z,5.63
2022-10-02T06:52:54.625Z,0
2022-10-02T06:53:51.539Z,0
2022-10-02T06:54:52.535Z,5.63
2022-10-02T06:55:53.151Z,5.63
2022-10-02T06:56:54.140Z,5.63
2022-10-02T06:57:55.367Z,5.63
2022-10-02T06:58:55.412Z,5.63
2022-10-02T06:59:55.294Z,5.63
2022-10-02T07:00:56.909Z,5.63
2022-10-02T07:02:02.490Z,5.63
2022-10-02T07:02:57.696Z,5.63
2022-10-02T07:03:58.042Z,5.63
2022-10-02T07:04:58.745Z,5.63
2022-10-02T07:05:59.666Z,5.63
2022-10-02T07:07:00.287Z,5.63
2022-10-02T07:08:01.201Z,5.63
2022-10-02T07:09:01.832Z,0
2022-10-02T07:10:02.741Z,0
2022-10-02T07:11:03.376Z,5.63
2022-10-02T07:12:04.276Z,5.63
2022-10-02T07:13:05.546Z,5.63
2022-10-02T07:14:05.773Z,5.63
2022-10-02T07:15:07.051Z,5.63
2022-10-02T07:16:07.774Z,5.63
2022-10-02T07:17:07.898Z,5.63
2022-10-02T07:18:08.810Z,5.63
2022-10-02T07:19:09.751Z,5.63
2022-10-02T07:20:09.669Z,5.63
2022-10-02T07:21:10.008Z,5.63
2022-10-02T07:22:45.892Z,5.63
2022-10-02T07:23:13.333Z,11.25
2022-10-02T07:24:15.189Z,11.25
2022-10-02T07:25:12.201Z,5.63
2022-10-02T07:26:12.818Z,5.63
2022-10-02T07:27:13.432Z,5.63
2022-10-02T07:28:14.704Z,11.25
2022-10-02T07:29:15.556Z,11.25
2022-10-02T07:30:16.789Z,11.25
2022-10-02T07:31:16.959Z,11.25
2022-10-02T07:32:18.024Z,11.25
2022-10-02T07:33:17.946Z,11.25
2022-10-02T07:34:18.568Z,11.25
2022-10-02T07:35:19.305Z,5.63
2022-10-02T07:36:19.915Z,11.25
2022-10-02T07:37:20.807Z,11.25
2022-10-02T07:38:21.715Z,16.88
2022-10-02T07:39:21.630Z,11.25
2022-10-02T07:40:23.123Z,11.25
2022-10-02T07:41:23.039Z,16.88
2022-10-02T07:42:23.953Z,16.88
2022-10-02T07:43:24.628Z,16.88
2022-10-02T07:44:25.869Z,22.5
2022-10-02T07:45:25.891Z,22.5
2022-10-02T07:46:27.071Z,22.5
2022-10-02T07:47:26.688Z,28.13
2022-10-02T07:48:27.611Z,28.13
2022-10-02T07:49:28.228Z,28.13
2022-10-02T07:50:29.146Z,28.13
2022-10-02T07:51:34.838Z,28.13
2022-10-02T07:52:30.677Z,28.13
2022-10-02T07:53:31.873Z,28.13
2022-10-02T07:54:32.788Z,28.13
2022-10-02T07:55:33.506Z,28.13
2022-10-02T07:56:33.860Z,28.13
2022-10-02T07:57:33.848Z,28.13
2022-10-02T07:58:33.787Z,28.13
2022-10-02T07:59:34.736Z,28.13
2022-10-02T08:00:36.339Z,28.13
2022-10-02T08:01:36.249Z,28.13
2022-10-02T08:02:36.508Z,28.13
2022-10-02T08:03:37.439Z,28.13
2022-10-02T08:04:42.360Z,22.5
2022-10-02T08:05:38.388Z,28.13
2022-10-02T08:06:39.322Z,28.13
2022-10-02T08:07:38.397Z,22.5
2022-10-02T08:08:39.615Z,28.13
2022-10-02T08:09:39.952Z,28.13
2022-10-02T08:10:41.147Z,22.5
2022-10-02T08:11:41.484Z,16.88
2022-10-02T08:12:42.107Z,22.5
2022-10-02T08:13:43.407Z,22.5
2022-10-02T08:14:44.659Z,16.88
2022-10-02T08:15:44.949Z,16.88
2022-10-02T08:16:46.500Z,11.25
2022-10-02T08:17:45.877Z,11.25
2022-10-02T08:18:51.838Z,11.25
2022-10-02T08:19:47.332Z,11.25
2022-10-02T08:20:46.960Z,11.25
2022-10-02T08:21:47.278Z,11.25
2022-10-02T08:22:47.917Z,11.25
2022-10-02T08:23:48.906Z,16.88
2022-10-02T08:24:49.124Z,16.88
2022-10-02T08:25:49.843Z,22.5
2022-10-02T08:26:53.418Z,22.5
2022-10-02T08:27:51.214Z,16.88
2022-10-02T08:28:52.393Z,22.5
2022-10-02T08:29:52.346Z,22.5
2022-10-02T08:30:53.832Z,22.5
2022-10-02T08:31:53.531Z,22.5
2022-10-02T08:32:54.247Z,22.5
2022-10-02T08:33:55.740Z,22.5
2022-10-02T08:34:55.937Z,22.5
2022-10-02T08:35:56.390Z,28.13
2022-10-02T08:36:56.710Z,22.5
2022-10-02T08:37:57.642Z,22.5
2022-10-02T08:39:05.453Z,22.5
2022-10-02T08:39:58.790Z,16.88
2022-10-02T08:40:59.990Z,22.5
2022-10-02T08:42:00.502Z,28.13
2022-10-02T08:43:00.686Z,28.13
2022-10-02T08:44:00.928Z,28.13
2022-10-02T08:45:01.916Z,28.13
2022-10-02T08:46:03.030Z,39.38
2022-10-02T08:47:03.257Z,39.38
2022-10-02T08:48:04.174Z,33.75
2022-10-02T08:49:04.364Z,33.75
2022-10-02T08:50:04.550Z,28.13
2022-10-02T08:51:04.164Z,33.75
2022-10-02T08:52:05.359Z,33.75
2022-10-02T08:53:04.970Z,39.38
2022-10-02T08:54:06.188Z,45
2022-10-02T08:55:05.789Z,39.38
2022-10-02T08:56:06.483Z,28.13
2022-10-02T08:57:07.685Z,33.75
2022-10-02T08:58:08.653Z,45
2022-10-02T08:59:08.876Z,39.38
2022-10-02T09:00:09.564Z,39.38
2022-10-02T09:01:10.570Z,50.63
2022-10-02T09:02:16.285Z,67.5
2022-10-02T09:03:12.198Z,61.88
2022-10-02T09:04:12.822Z,61.88
2022-10-02T09:05:13.440Z,61.88
2022-10-02T09:06:13.806Z,84.38
2022-10-02T09:07:14.150Z,84.38
2022-10-02T09:08:15.076Z,78.75
2022-10-02T09:09:15.696Z,73.13
2022-10-02T09:10:16.899Z,67.5
2022-10-02T09:11:16.523Z,67.5
2022-10-02T09:12:18.014Z,61.88
2022-10-02T09:13:17.935Z,67.5
2022-10-02T09:14:19.180Z,56.25
2022-10-02T09:15:19.136Z,50.63
2022-10-02T09:16:19.713Z,50.63
2022-10-02T09:17:20.978Z,56.25
2022-10-02T09:18:20.318Z,67.5
2022-10-02T09:19:21.241Z,61.88
2022-10-02T09:20:21.160Z,56.25
2022-10-02T09:21:27.571Z,50.63
2022-10-02T09:22:22.476Z,45
2022-10-02T09:23:23.406Z,39.38
2022-10-02T09:24:24.912Z,39.38
2022-10-02T09:25:24.262Z,39.38
2022-10-02T09:26:24.433Z,45
2022-10-02T09:27:25.626Z,50.63
2022-10-02T09:28:25.563Z,45
2022-10-02T09:29:26.589Z,39.38
2022-10-02T09:30:27.562Z,39.38
2022-10-02T09:31:27.812Z,33.75
2022-10-02T09:32:28.462Z,39.38
2022-10-02T09:33:32.007Z,39.38
2022-10-02T09:34:30.212Z,39.38
2022-10-02T09:35:29.814Z,33.75
2022-10-02T09:36:30.531Z,39.38
2022-10-02T09:37:30.137Z,39.38
2022-10-02T09:38:30.780Z,39.38
2022-10-02T09:39:31.675Z,33.75
2022-10-02T09:40:32.316Z,33.75
2022-10-02T09:41:33.261Z,28.13
2022-10-02T09:42:33.762Z,33.75
2022-10-02T09:43:33.399Z,39.38
2022-10-02T09:44:34.644Z,39.38
2022-10-02T09:45:34.860Z,39.38
2022-10-02T09:46:36.046Z,45
2022-10-02T09:47:35.774Z,45
2022-10-02T09:48:36.115Z,45
2022-10-02T09:49:36.745Z,50.63
2022-10-02T09:50:37.658Z,45
2022-10-02T09:51:38.580Z,45
2022-10-02T09:52:42.621Z,45
2022-10-02T09:53:39.667Z,50.63
2022-10-02T09:54:41.163Z,56.25
2022-10-02T09:55:41.081Z,50.63
2022-10-02T09:56:41.493Z,61.88
2022-10-02T09:57:42.523Z,67.5
2022-10-02T09:58:43.125Z,67.5
2022-10-02T09:59:44.344Z,67.5
2022-10-02T10:00:44.831Z,78.75
2022-10-02T10:01:46.131Z,118.13
2022-10-02T10:02:45.512Z,438.75
2022-10-02T10:03:46.034Z,78.75
2022-10-02T10:05:17.612Z,123.75
2022-10-02T10:05:46.536Z,123.75
2022-10-02T10:06:48.134Z,146.25
2022-10-02T10:07:47.759Z,123.75
2022-10-02T10:08:48.672Z,106.88
2022-10-02T10:09:49.597Z,95.63
2022-10-02T10:10:50.513Z,90
2022-10-02T10:11:51.477Z,84.38
2022-10-02T10:12:51.093Z,61.88
2022-10-02T10:13:52.293Z,56.25
2022-10-02T10:14:53.256Z,67.5
2022-10-02T10:15:53.790Z,84.38
2022-10-02T10:16:53.541Z,185.63
2022-10-02T10:17:54.470Z,101.25
2022-10-02T10:18:55.070Z,78.75
2022-10-02T10:19:55.571Z,78.75
2022-10-02T10:20:55.578Z,67.5
2022-10-02T10:21:56.926Z,78.75
2022-10-02T10:22:57.146Z,78.75
2022-10-02T10:23:57.087Z,78.75
2022-10-02T10:24:56.428Z,135
2022-10-02T10:25:58.050Z,180
2022-10-02T10:26:58.530Z,208.13
2022-10-02T10:28:00.311Z,90
2022-10-02T10:28:59.966Z,286.88
2022-10-02T10:30:01.488Z,731.25
2022-10-02T10:31:01.754Z,225
2022-10-02T10:32:02.261Z,151.88
2022-10-02T10:33:02.825Z,365.63
2022-10-02T10:34:02.435Z,101.25
2022-10-02T10:35:03.055Z,95.63
2022-10-02T10:36:03.680Z,90
2022-10-02T10:37:04.385Z,61.88
2022-10-02T10:38:05.312Z,73.13
2022-10-02T10:39:05.952Z,61.88
2022-10-02T10:40:06.277Z,61.88
2022-10-02T10:41:07.183Z,56.25
2022-10-02T10:42:07.531Z,56.25
2022-10-02T10:43:27.355Z,78.75
2022-10-02T10:44:09.286Z,101.25
2022-10-02T10:45:10.240Z,90
2022-10-02T10:46:11.371Z,84.38
2022-10-02T10:47:11.143Z,84.38
2022-10-02T10:48:12.076Z,56.25
2022-10-02T10:49:11.796Z,50.63
2022-10-02T10:50:12.138Z,67.5
2022-10-02T10:51:13.065Z,106.88
2022-10-02T10:52:14.267Z,118.13
2022-10-02T10:53:14.767Z,303.75
2022-10-02T10:54:18.199Z,196.88
2022-10-02T10:55:15.400Z,399.38
2022-10-02T10:56:15.890Z,871.88
2022-10-02T10:57:15.592Z,675
2022-10-02T10:58:16.214Z,106.88
2022-10-02T10:59:18.951Z,112.5
2022-10-02T11:00:17.850Z,101.25
2022-10-02T11:01:19.914Z,90
2022-10-02T11:02:20.740Z,78.75
2022-10-02T11:03:21.023Z,61.88
2022-10-02T11:04:21.940Z,95.63
2022-10-02T11:05:22.290Z,67.5
2022-10-02T11:06:22.910Z,73.13
2022-10-02T11:07:24.002Z,106.88
2022-10-02T11:08:24.923Z,78.75
2022-10-02T11:09:24.848Z,67.5
2022-10-02T11:10:25.782Z,67.5
2022-10-02T11:11:26.982Z,90
2022-10-02T11:12:27.905Z,84.38
2022-10-02T11:13:29.125Z,84.38
2022-10-02T11:14:29.037Z,118.13
2022-10-02T11:15:30.562Z,118.13
2022-10-02T11:16:30.964Z,106.88
2022-10-02T11:17:31.000Z,78.75
2022-10-02T11:18:32.512Z,140.63
2022-10-02T11:19:37.750Z,151.88
2022-10-02T11:20:32.382Z,112.5
2022-10-02T11:21:32.991Z,118.13
2022-10-02T11:22:33.591Z,112.5
2022-10-02T11:23:34.792Z,135
2022-10-02T11:24:35.423Z,123.75
2022-10-02T11:25:35.773Z,106.88
2022-10-02T11:26:36.392Z,112.5
2022-10-02T11:27:37.883Z,112.5
2022-10-02T11:28:39.218Z,106.88
2022-10-02T11:29:39.431Z,67.5
2022-10-02T11:30:43.681Z,56.25
2022-10-02T11:31:41.271Z,50.63
2022-10-02T11:32:40.321Z,50.63
2022-10-02T11:33:41.828Z,50.63
2022-10-02T11:34:41.475Z,50.63
2022-10-02T11:35:42.092Z,56.25
2022-10-02T11:36:42.995Z,78.75
2022-10-02T11:37:43.999Z,95.63
2022-10-02T11:38:44.934Z,73.13
2022-10-02T11:39:45.556Z,67.5
2022-10-02T11:40:45.888Z,61.88
2022-10-02T11:41:46.874Z,50.63
2022-10-02T11:42:47.492Z,45
2022-10-02T11:43:55.211Z,45
2022-10-02T11:44:49.127Z,50.63
2022-10-02T11:45:50.396Z,61.88
2022-10-02T11:46:50.375Z,56.25
2022-10-02T11:47:50.666Z,50.63
2022-10-02T11:48:51.177Z,45
2022-10-02T11:49:51.074Z,45
2022-10-02T11:50:52.008Z,39.38
2022-10-02T11:51:52.601Z,33.75
2022-10-02T11:52:59.565Z,33.75
2022-10-02T11:53:53.472Z,33.75
2022-10-02T11:54:54.669Z,28.13
2022-10-02T11:55:54.895Z,28.13
2022-10-02T11:56:54.797Z,28.13
2022-10-02T11:57:55.824Z,28.13
2022-10-02T11:58:55.749Z,28.13
2022-10-02T11:59:56.376Z,33.75
2022-10-02T12:00:57.646Z,33.75
2022-10-02T12:01:58.711Z,45
2022-10-02T12:02:59.273Z,50.63
2022-10-02T12:03:58.919Z,50.63
2022-10-02T12:04:59.841Z,50.63
2022-10-02T12:06:01.047Z,50.63
2022-10-02T12:07:01.247Z,56.25
2022-10-02T12:08:02.027Z,50.63
2022-10-02T12:09:02.945Z,50.63
2022-10-02T12:10:03.143Z,50.63
2022-10-02T12:11:03.046Z,50.63
2022-10-02T12:12:04.242Z,50.63
2022-10-02T12:13:04.732Z,45
2022-10-02T12:14:05.236Z,45
2022-10-02T12:15:05.166Z,50.63
2022-10-02T12:16:05.746Z,61.88
2022-10-02T12:17:05.915Z,61.88
2022-10-02T12:18:06.047Z,67.5
2022-10-02T12:19:06.961Z,112.5
2022-10-02T12:20:08.060Z,106.88
2022-10-02T12:21:08.007Z,67.5
2022-10-02T12:22:07.917Z,50.63
2022-10-02T12:23:08.841Z,39.38
2022-10-02T12:24:09.449Z,28.13
2022-10-02T12:25:11.666Z,28.13
2022-10-02T12:26:10.874Z,28.13
2022-10-02T12:27:11.977Z,28.13
2022-10-02T12:28:12.291Z,28.13
2022-10-02T12:29:11.947Z,28.13
2022-10-02T12:30:12.874Z,33.75
2022-10-02T12:31:14.135Z,28.13
2022-10-02T12:32:14.748Z,33.75
2022-10-02T12:33:14.393Z,33.75
2022-10-02T12:34:15.007Z,28.13
2022-10-02T12:35:16.207Z,28.13
2022-10-02T12:36:15.832Z,28.13
2022-10-02T12:37:17.032Z,22.5
2022-10-02T12:38:17.488Z,16.88
2022-10-02T12:39:21.840Z,16.88
2022-10-02T12:40:18.821Z,11.25
2022-10-02T12:41:19.716Z,11.25
2022-10-02T12:42:20.338Z,5.63
2022-10-02T12:43:21.248Z,5.63
2022-10-02T12:44:22.183Z,5.63
2022-10-02T12:45:28.108Z,5.63
2022-10-02T12:46:23.418Z,5.63
2022-10-02T12:47:23.110Z,11.25
2022-10-02T12:48:24.093Z,16.88
2022-10-02T12:49:25.306Z,22.5
2022-10-02T12:50:26.524Z,33.75
2022-10-02T12:51:26.447Z,33.75
2022-10-02T12:52:26.646Z,28.13
2022-10-02T12:53:26.559Z,28.13
2022-10-02T12:54:27.476Z,33.75
2022-10-02T12:55:26.799Z,33.75
2022-10-02T12:56:27.128Z,45
2022-10-02T12:57:28.448Z,45
2022-10-02T12:58:28.871Z,45
2022-10-02T12:59:30.071Z,50.63
2022-10-02T13:00:29.987Z,61.88
2022-10-02T13:01:31.576Z,67.5
2022-10-02T13:03:06.000Z,67.5
2022-10-02T13:03:32.417Z,56.25
2022-10-02T13:04:32.338Z,39.38
2022-10-02T13:05:32.256Z,28.13
2022-10-02T13:06:32.892Z,33.75
2022-10-02T13:07:33.810Z,33.75
2022-10-02T13:08:34.254Z,33.75
2022-10-02T13:09:41.108Z,28.13
2022-10-02T13:10:36.046Z,28.13
2022-10-02T13:11:36.817Z,33.75
2022-10-02T13:12:36.535Z,50.63
2022-10-02T13:13:37.739Z,56.25
2022-10-02T13:14:38.069Z,67.5
2022-10-02T13:15:38.995Z,61.88
2022-10-02T13:16:39.368Z,112.5
2022-10-02T13:17:39.020Z,61.88
2022-10-02T13:18:39.786Z,50.63
2022-10-02T13:19:41.017Z,56.25
2022-10-02T13:20:42.053Z,101.25
2022-10-02T13:21:43.047Z,67.5
2022-10-02T13:22:42.995Z,56.25
2022-10-02T13:23:47.143Z,73.13
2022-10-02T13:24:43.216Z,84.38
2022-10-02T13:25:44.109Z,90
2022-10-02T13:26:45.051Z,78.75
2022-10-02T13:27:48.030Z,73.13
2022-10-02T13:28:46.429Z,67.5
2022-10-02T13:29:47.053Z,78.75
2022-10-02T13:30:48.252Z,95.63
2022-10-02T13:31:50.679Z,191.25
2022-10-02T13:32:49.617Z,67.5
2022-10-02T13:33:50.133Z,50.63
2022-10-02T13:34:55.090Z,50.63
2022-10-02T13:35:50.417Z,39.38
2022-10-02T13:36:51.326Z,33.75
2022-10-02T13:37:51.955Z,39.38
2022-10-02T13:38:52.105Z,33.75
2022-10-02T13:39:53.326Z,33.75
2022-10-02T13:40:53.819Z,50.63
2022-10-02T13:41:54.507Z,45
2022-10-02T13:42:54.403Z,45
2022-10-02T13:43:58.345Z,45
2022-10-02T13:44:54.839Z,33.75
2022-10-02T13:45:56.123Z,28.13
2022-10-02T13:46:57.388Z,28.13
2022-10-02T13:47:57.605Z,28.13
2022-10-02T13:48:57.691Z,28.13
2022-10-02T13:49:57.002Z,28.13
2022-10-02T13:50:58.638Z,28.13
2022-10-02T13:51:59.879Z,22.5
2022-10-02T13:53:00.103Z,22.5
2022-10-02T13:54:00.590Z,22.5
2022-10-02T13:55:00.211Z,28.13
2022-10-02T13:56:01.431Z,28.13
2022-10-02T13:57:01.624Z,28.13
2022-10-02T13:58:02.843Z,33.75